McAlester, OK (74501)

5:39 PM CDT on August 30, 2015 (GMT -0500)
McAlester Regional | | Change Station
CLOSE
Current Station
Airport
Location: McAlester,
Elevation: 768 ft
Nearby Weather Stations

Elev 768 ft 34.88 °N, 95.78 °W | Updated 8 minutes ago

Partly Cloudy
Partly Cloudy
79 °F
Feels Like 79 °F
N
13
Wind Variable Wind from NW

Today
High -- | Low -- °F
--% Chance of Precip.
Yesterday
High -- | Low -- °F
Precip. -- in
6:54 AM 7:52 PM
Full, 98% visible
Pressure 29.94 in
Visibility 10.0 miles
Clouds Clear
Dew Point 67 °F
Humidity 66%
Rainfall 0.05 in
Snow Depth Not available.
UV 3 out of 12
Pollen 9.50 out of 12
Air Quality Not available.
Flu Activity Not available.
SPECI KMLC 302231Z AUTO 31011KT 10SM CLR 26/19 A2994 RMK AO2 LTG DSNT ALQDS T02610194
Pressure 29.94 in
Visibility 10.0 miles
Clouds Clear
Dew Point 67 °F
Humidity 66%
Rainfall 0.05 in
Snow Depth Not available.
UV 3 out of 12
Pollen 9.50 out of 12
Air Quality Not available.
Flu Activity Not available.
SPECI KMLC 302231Z AUTO 31011KT 10SM CLR 26/19 A2994 RMK AO2 LTG DSNT ALQDS T02610194
Nowcast | as of 4:44 PM CDT on August 30, 2015

At 4:44 PM...National Weather Service Doppler radars continued to detect a few rain showers and thunderstorms developing over southeast Oklahoma into western Arkansas. A couple stronger storms were located within western Pittsburg and southern Le Flore counties. All this activity was nearly stationary. Through 6:30 PM...scattered rain showers and an isolated thunderstorm will remain possible...mainly across southeast Oklahoma and western Arkansas. Light to moderate rainfall can be expected...with less than a tenth of an inch per hour. Any stronger thunderstorms that develop could produce brief heavy rainfall...along with hail...gusty winds...and cloud to ground lightning.

×

10-Day Weather Forecast

×

Almanac

Astronomy

Aug. 30, 2015 Rise Set
Actual Time
Civil Twilight
Nautical Twilight
Astronomical Twilight
Moon
Length of Visible Light
Length of Day
Tomorrow will be .
, % of the Moon is Illuminated

Today's Extremes

State Highs State Lows

Community

WunderPhotos

Upload Photos

1,851,074 photos uploaded!

WunderBlogs® & News

Nearby

Air Quality

  Air Quality AQ Index Pollutant
Not available.

Snow Depth

Station Depth Elevation

Earthquake Activity

City Distance Mag. Time & Date
Minimum magnitude displayed is 2.5.

Coastal Water Temperatures

Place Temperature

Stations

Nearby Weather Stations

Station Location Temp. Windchill Dew Point Humidity Wind Precip. Elev Updated Type